createdAt,value
2018-04-24T00:00:31.322Z,934.84
2018-04-24T00:01:31.451Z,934.86
2018-04-24T00:02:31.372Z,934.78
2018-04-24T00:03:31.448Z,934.84
2018-04-24T00:04:31.388Z,934.86
2018-04-24T00:05:31.404Z,934.81
2018-04-24T00:06:31.433Z,934.86
2018-04-24T00:07:31.552Z,934.85
2018-04-24T00:08:31.471Z,934.84
2018-04-24T00:09:31.461Z,934.86
2018-04-24T00:10:31.476Z,934.85
2018-04-24T00:11:31.513Z,934.87
2018-04-24T00:12:31.620Z,934.82
2018-04-24T00:13:31.537Z,934.82
2018-04-24T00:14:31.544Z,934.85
2018-04-24T00:15:31.568Z,934.84
2018-04-24T00:16:31.569Z,934.82
2018-04-24T00:17:31.607Z,934.83
2018-04-24T00:18:31.835Z,934.86
2018-04-24T00:19:31.633Z,934.86
2018-04-24T00:20:31.644Z,934.86
2018-04-24T00:21:31.647Z,934.86
2018-04-24T00:22:31.676Z,934.89
2018-04-24T00:23:31.780Z,934.87
2018-04-24T00:24:31.694Z,934.92
2018-04-24T00:25:31.724Z,934.92
2018-04-24T00:26:31.726Z,934.95
2018-04-24T00:27:31.753Z,934.95
2018-04-24T00:28:31.853Z,934.98
2018-04-24T00:29:31.767Z,934.94
2018-04-24T00:30:31.793Z,934.93
2018-04-24T00:31:31.800Z,934.92
2018-04-24T00:32:31.823Z,934.93
2018-04-24T00:33:31.856Z,934.93
2018-04-24T00:34:31.999Z,934.95
2018-04-24T00:35:31.885Z,934.95
2018-04-24T00:36:31.877Z,934.91
2018-04-24T00:37:31.904Z,934.93
2018-04-24T00:38:31.907Z,934.94
2018-04-24T00:39:32.021Z,934.90
2018-04-24T00:40:31.944Z,934.92
2018-04-24T00:41:31.973Z,934.94
2018-04-24T00:42:31.979Z,934.95
2018-04-24T00:43:32.002Z,934.95
2018-04-24T00:44:32.103Z,934.94
2018-04-24T00:45:32.034Z,934.94
2018-04-24T00:46:32.055Z,934.94
2018-04-24T00:47:32.048Z,934.95
2018-04-24T00:48:32.059Z,934.88
2018-04-24T00:49:32.236Z,934.93
2018-04-24T00:50:32.111Z,934.91
2018-04-24T00:51:32.110Z,934.92
2018-04-24T00:52:32.140Z,934.89
2018-04-24T00:53:32.143Z,934.87
2018-04-24T00:54:32.253Z,934.94
2018-04-24T00:55:32.185Z,934.93
2018-04-24T00:56:32.189Z,934.95
2018-04-24T00:57:32.212Z,934.96
2018-04-24T00:58:32.234Z,934.99
2018-04-24T00:59:32.353Z,934.96
2018-04-24T01:00:32.238Z,934.97
2018-04-24T01:01:32.278Z,934.94
2018-04-24T01:02:32.284Z,934.95
2018-04-24T01:03:32.289Z,934.91
2018-04-24T01:04:32.464Z,934.94
2018-04-24T01:05:32.330Z,934.95
2018-04-24T01:06:32.343Z,934.92
2018-04-24T01:07:32.364Z,934.93
2018-04-24T01:08:32.384Z,934.94
2018-04-24T01:09:32.502Z,934.90
2018-04-24T01:10:32.389Z,934.97
2018-04-24T01:11:32.425Z,934.98
2018-04-24T01:12:32.437Z,935.01
2018-04-24T01:13:32.568Z,934.99
2018-04-24T01:14:32.477Z,935.00
2018-04-24T01:15:32.589Z,934.96
2018-04-24T01:16:32.501Z,935.00
2018-04-24T01:17:32.510Z,934.96
2018-04-24T01:18:32.530Z,934.96
2018-04-24T01:19:32.527Z,934.95
2018-04-24T01:20:32.745Z,934.95
2018-04-24T01:21:32.584Z,934.97
2018-04-24T01:22:32.579Z,935.00
2018-04-24T01:23:32.608Z,935.02
2018-04-24T01:24:32.599Z,935.00
2018-04-24T01:25:32.731Z,935.07
2018-04-24T01:26:32.649Z,935.06
2018-04-24T01:27:32.643Z,935.07
2018-04-24T01:28:32.671Z,935.05
2018-04-24T01:29:32.674Z,935.05
2018-04-24T01:30:32.695Z,935.01
2018-04-24T01:31:32.824Z,935.00
2018-04-24T01:32:32.745Z,935.03
2018-04-24T01:33:32.739Z,934.99
2018-04-24T01:34:32.765Z,935.00
2018-04-24T01:35:32.770Z,934.96
2018-04-24T01:36:32.904Z,934.95
2018-04-24T01:37:32.798Z,934.98
2018-04-24T01:38:32.820Z,935.01
2018-04-24T01:39:32.840Z,934.99
2018-04-24T01:40:32.857Z,934.98
2018-04-24T01:41:32.856Z,934.98
2018-04-24T01:42:32.981Z,934.98
2018-04-24T01:43:32.884Z,935.02
2018-04-24T01:44:32.903Z,934.98
2018-04-24T01:45:32.914Z,934.95
2018-04-24T01:46:32.929Z,934.95
2018-04-24T01:47:33.060Z,934.93
2018-04-24T01:48:32.975Z,934.94
2018-04-24T01:49:32.994Z,934.90
2018-04-24T01:50:32.993Z,934.86
2018-04-24T01:51:33.031Z,934.82
2018-04-24T01:52:33.129Z,934.80
2018-04-24T01:53:33.059Z,934.78
2018-04-24T01:54:33.058Z,934.77
2018-04-24T01:55:33.083Z,934.76
2018-04-24T01:56:33.089Z,934.74
2018-04-24T01:57:33.193Z,934.78
2018-04-24T01:58:33.118Z,934.74
2018-04-24T01:59:33.121Z,934.77
2018-04-24T02:00:33.156Z,934.75
2018-04-24T02:01:33.165Z,934.78
2018-04-24T02:02:33.336Z,934.77
2018-04-24T02:03:33.194Z,934.79
2018-04-24T02:04:33.207Z,934.76
2018-04-24T02:05:33.235Z,934.78
2018-04-24T02:06:33.241Z,934.78
2018-04-24T02:07:33.369Z,934.80
2018-04-24T02:08:33.281Z,934.79
2018-04-24T02:09:33.273Z,934.83
2018-04-24T02:10:33.310Z,934.79
2018-04-24T02:11:33.323Z,934.79
2018-04-24T02:12:33.435Z,934.82
2018-04-24T02:13:33.328Z,934.85
2018-04-24T02:14:33.344Z,934.84
2018-04-24T02:15:33.364Z,934.83
2018-04-24T02:16:33.385Z,934.80
2018-04-24T02:19:33.428Z,934.81
2018-04-24T02:20:33.436Z,934.83
2018-04-24T02:21:33.447Z,934.81
2018-04-24T02:22:33.938Z,934.78
2018-04-24T02:23:33.484Z,934.80
2018-04-24T02:24:33.498Z,934.83
2018-04-24T02:25:33.544Z,934.80
2018-04-24T02:26:33.542Z,934.86
2018-04-24T02:27:33.541Z,934.79
2018-04-24T02:28:33.817Z,934.78
2018-04-24T02:29:33.695Z,934.76
2018-04-24T02:30:33.714Z,934.74
2018-04-24T02:31:33.595Z,934.78
2018-04-24T02:32:33.739Z,934.76
2018-04-24T02:33:33.728Z,934.73
2018-04-24T02:34:33.646Z,934.72
2018-04-24T02:35:33.657Z,934.72
2018-04-24T02:36:33.671Z,934.72
2018-04-24T02:37:33.703Z,934.74
2018-04-24T02:38:33.802Z,934.73
2018-04-24T02:39:33.722Z,934.72
2018-04-24T02:43:33.990Z,934.62
2018-04-24T02:44:33.918Z,934.63
2018-04-24T02:45:33.813Z,934.62
2018-04-24T02:46:33.951Z,934.62
2018-04-24T02:47:33.970Z,934.57
2018-04-24T02:48:33.860Z,934.60
2018-04-24T02:49:34.074Z,934.58
2018-04-24T02:50:33.877Z,934.55
2018-04-24T02:51:33.918Z,934.58
2018-04-24T02:52:34.044Z,934.57
2018-04-24T02:53:33.935Z,934.59
2018-04-24T02:54:34.190Z,934.53
2018-04-24T02:55:33.967Z,934.53
2018-04-24T02:56:33.978Z,934.54
2018-04-24T02:57:33.997Z,934.55
2018-04-24T02:58:34.131Z,934.54
2018-04-24T02:59:34.139Z,934.54
2018-04-24T03:00:34.049Z,934.56
2018-04-24T03:01:34.064Z,934.60
2018-04-24T03:02:34.081Z,934.56
2018-04-24T03:03:34.079Z,934.58
2018-04-24T03:04:34.252Z,934.58
2018-04-24T03:05:34.106Z,934.60
2018-04-24T03:06:34.129Z,934.59
2018-04-24T03:07:34.155Z,934.55
2018-04-24T03:08:34.147Z,934.53
2018-04-24T03:09:34.270Z,934.56
2018-04-24T03:10:34.176Z,934.56
2018-04-24T03:11:34.196Z,934.53
2018-04-24T03:12:34.235Z,934.53
2018-04-24T03:13:34.239Z,934.51
2018-04-24T03:14:34.402Z,934.44
2018-04-24T03:15:34.273Z,934.46
2018-04-24T03:16:34.285Z,934.47
2018-04-24T03:17:34.302Z,934.44
2018-04-24T03:18:34.307Z,934.46
2018-04-24T03:19:34.482Z,934.43
2018-04-24T03:20:34.345Z,934.46
2018-04-24T03:21:34.345Z,934.45
2018-04-24T03:22:34.375Z,934.42
2018-04-24T03:23:34.383Z,934.39
2018-04-24T03:24:34.552Z,934.38
2018-04-24T03:25:34.424Z,934.36
2018-04-24T03:26:34.425Z,934.36
2018-04-24T03:27:34.427Z,934.32
2018-04-24T03:28:34.456Z,934.30
2018-04-24T03:29:34.472Z,934.27
2018-04-24T03:30:34.695Z,934.28
2018-04-24T03:31:34.499Z,934.26
2018-04-24T03:32:34.517Z,934.23
2018-04-24T03:33:34.543Z,934.23
2018-04-24T03:34:34.552Z,934.20
2018-04-24T03:35:34.657Z,934.24
2018-04-24T03:36:34.587Z,934.18
2018-04-24T03:37:34.579Z,934.18
2018-04-24T03:38:34.722Z,934.19
2018-04-24T03:39:34.607Z,934.21
2018-04-24T03:40:34.781Z,934.20
2018-04-24T03:41:34.652Z,934.18
2018-04-24T03:42:34.647Z,934.19
2018-04-24T03:43:34.680Z,934.17
2018-04-24T03:44:34.688Z,934.13
2018-04-24T03:45:34.704Z,934.13
2018-04-24T03:46:34.867Z,934.13
2018-04-24T03:47:34.739Z,934.08
2018-04-24T03:48:34.734Z,934.07
2018-04-24T03:49:34.760Z,934.06
2018-04-24T03:50:34.788Z,934.07
2018-04-24T03:51:34.952Z,934.08
2018-04-24T03:52:34.809Z,934.10
2018-04-24T03:53:34.806Z,934.10
2018-04-24T03:54:34.825Z,934.06
2018-04-24T03:56:34.868Z,934.05
2018-04-24T03:57:34.963Z,934.02
2018-04-24T03:58:34.897Z,934.04
2018-04-24T03:59:34.906Z,934.04
2018-04-24T04:00:34.918Z,934.03
2018-04-24T04:01:34.942Z,934.01
2018-04-24T04:02:35.091Z,933.97
2018-04-24T04:03:34.969Z,933.94
2018-04-24T04:04:34.976Z,933.95
2018-04-24T04:05:34.999Z,933.93
2018-04-24T04:06:35.012Z,933.89
2018-04-24T04:07:35.171Z,933.90
2018-04-24T04:08:35.034Z,933.88
2018-04-24T04:09:35.046Z,933.89
2018-04-24T04:10:35.059Z,933.89
2018-04-24T04:11:35.090Z,933.87
2018-04-24T04:12:35.195Z,933.83
2018-04-24T04:13:35.091Z,933.87
2018-04-24T04:14:35.112Z,933.85
2018-04-24T04:15:35.121Z,933.85
2018-04-24T04:16:35.140Z,933.85
2018-04-24T04:17:35.299Z,933.84
2018-04-24T04:18:35.180Z,933.83
2018-04-24T04:19:35.177Z,933.84
2018-04-24T04:20:35.204Z,933.80
2018-04-24T04:21:35.227Z,933.77
2018-04-24T04:22:35.354Z,933.75
2018-04-24T04:23:35.248Z,933.72
2018-04-24T04:24:35.269Z,933.70
2018-04-24T04:25:35.263Z,933.73
2018-04-24T04:26:35.291Z,933.66
2018-04-24T04:27:35.390Z,933.61
2018-04-24T04:28:35.329Z,933.64
2018-04-24T04:29:35.332Z,933.65
2018-04-24T04:30:35.333Z,933.64
2018-04-24T04:31:35.370Z,933.61
2018-04-24T04:32:35.539Z,933.65
2018-04-24T04:33:35.377Z,933.64
2018-04-24T04:34:35.394Z,933.59
2018-04-24T04:35:35.422Z,933.57
2018-04-24T04:36:35.427Z,933.58
2018-04-24T04:37:35.435Z,933.49
2018-04-24T04:38:35.559Z,933.51
2018-04-24T04:39:35.487Z,933.50
2018-04-24T04:40:35.495Z,933.50
2018-04-24T04:41:35.501Z,933.50
2018-04-24T04:42:35.523Z,933.46
2018-04-24T04:43:35.683Z,933.45
2018-04-24T04:44:35.554Z,933.44
2018-04-24T04:45:35.680Z,933.45
2018-04-24T04:46:35.579Z,933.44
2018-04-24T04:47:35.576Z,933.44
2018-04-24T04:48:35.702Z,933.40
2018-04-24T04:49:35.603Z,933.37
2018-04-24T04:50:35.644Z,933.38
2018-04-24T04:51:35.641Z,933.32
2018-04-24T04:52:35.667Z,933.34
2018-04-24T04:53:35.760Z,933.31
2018-04-24T04:54:35.694Z,933.29
2018-04-24T04:55:35.704Z,933.28
2018-04-24T04:56:35.714Z,933.30
2018-04-24T04:57:35.737Z,933.31
2018-04-24T04:58:35.835Z,933.28
2018-04-24T04:59:35.744Z,933.28
2018-04-24T05:00:35.761Z,933.26
2018-04-24T05:01:35.791Z,933.30
2018-04-24T05:02:35.806Z,933.30
2018-04-24T05:03:35.824Z,933.31
2018-04-24T05:04:35.937Z,933.26
2018-04-24T05:05:35.835Z,933.32
2018-04-24T05:06:35.863Z,933.29
2018-04-24T05:07:35.873Z,933.30
2018-04-24T05:08:35.870Z,933.26
2018-04-24T05:09:35.985Z,933.29
2018-04-24T05:10:35.903Z,933.27
2018-04-24T05:11:35.913Z,933.31
2018-04-24T05:12:35.939Z,933.31
2018-04-24T05:13:35.964Z,933.31
2018-04-24T05:14:36.077Z,933.32
2018-04-24T05:15:35.988Z,933.30
2018-04-24T05:16:35.998Z,933.32
2018-04-24T05:17:36.000Z,933.32
2018-04-24T05:18:36.023Z,933.32
2018-04-24T05:19:36.126Z,933.32
2018-04-24T05:20:36.055Z,933.31
2018-04-24T05:21:36.055Z,933.33
2018-04-24T05:22:36.079Z,933.36
2018-04-24T05:23:36.081Z,933.34
2018-04-24T05:24:36.201Z,933.37
2018-04-24T05:25:36.111Z,933.37
2018-04-24T05:26:36.143Z,933.32
2018-04-24T05:27:36.142Z,933.31
2018-04-24T05:28:36.164Z,933.29
2018-04-24T05:29:36.265Z,933.33
2018-04-24T05:30:36.200Z,933.31
2018-04-24T05:31:36.206Z,933.32
2018-04-24T05:32:36.209Z,933.30
2018-04-24T05:33:36.239Z,933.37
2018-04-24T05:34:36.336Z,933.32
2018-04-24T05:35:36.255Z,933.33
2018-04-24T05:36:36.274Z,933.30
2018-04-24T05:37:36.302Z,933.32
2018-04-24T05:38:36.316Z,933.25
2018-04-24T05:39:36.416Z,933.26
2018-04-24T05:40:36.321Z,933.23
2018-04-24T05:41:36.340Z,933.26
2018-04-24T05:42:36.348Z,933.25
2018-04-24T05:43:36.377Z,933.27
2018-04-24T05:44:36.391Z,933.27
2018-04-24T05:45:36.511Z,933.24
2018-04-24T05:46:36.415Z,933.25
2018-04-24T05:47:36.437Z,933.22
2018-04-24T05:48:36.458Z,933.26
2018-04-24T05:49:36.463Z,933.24
2018-04-24T05:50:36.557Z,933.22
2018-04-24T05:51:36.488Z,933.24
2018-04-24T05:52:36.507Z,933.24
2018-04-24T05:53:36.522Z,933.23
2018-04-24T05:54:36.541Z,933.27
2018-04-24T05:55:36.690Z,933.27
2018-04-24T05:56:36.555Z,933.26
2018-04-24T05:57:36.575Z,933.24
2018-04-24T05:58:36.671Z,933.26
2018-04-24T05:59:36.584Z,933.23
2018-04-24T06:00:36.598Z,933.22
2018-04-24T06:01:36.723Z,933.27
2018-04-24T06:02:36.655Z,933.29
2018-04-24T06:03:36.652Z,933.29
2018-04-24T06:04:36.673Z,933.27
2018-04-24T06:05:36.804Z,933.28
2018-04-24T06:06:36.779Z,933.27
2018-04-24T06:07:36.691Z,933.27
2018-04-24T06:08:36.811Z,933.25
2018-04-24T06:09:36.743Z,933.29
2018-04-24T06:10:36.746Z,933.28
2018-04-24T06:11:36.869Z,933.27
2018-04-24T06:12:36.762Z,933.30
2018-04-24T06:13:36.795Z,933.28
2018-04-24T06:14:36.796Z,933.27
2018-04-24T06:15:36.822Z,933.26
2018-04-24T06:16:36.932Z,933.25
2018-04-24T06:17:36.831Z,933.26
2018-04-24T06:18:36.854Z,933.24
2018-04-24T06:19:36.884Z,933.25
2018-04-24T06:20:36.896Z,933.24
2018-04-24T06:21:36.902Z,933.24
2018-04-24T06:22:36.969Z,933.25
2018-04-24T06:23:36.929Z,933.22
2018-04-24T06:24:36.954Z,933.21
2018-04-24T06:25:36.957Z,933.22
2018-04-24T06:26:36.976Z,933.20
2018-04-24T06:27:36.983Z,933.18
2018-04-24T06:28:37.045Z,933.16
2018-04-24T06:29:37.023Z,933.16
2018-04-24T06:30:37.011Z,933.15
2018-04-24T06:31:37.046Z,933.14
2018-04-24T06:32:37.174Z,933.17
2018-04-24T06:33:37.232Z,933.18
2018-04-24T06:34:37.073Z,933.20
2018-04-24T06:35:37.100Z,933.18
2018-04-24T06:36:37.105Z,933.17
2018-04-24T06:37:37.244Z,933.21
2018-04-24T06:38:37.357Z,933.20
2018-04-24T06:39:37.154Z,933.16
2018-04-24T06:40:37.171Z,933.18
2018-04-24T06:41:37.188Z,933.13
2018-04-24T06:42:37.199Z,933.14
2018-04-24T06:43:37.301Z,933.09
2018-04-24T06:44:37.213Z,933.09
2018-04-24T06:45:37.356Z,933.07
2018-04-24T06:46:37.245Z,933.09
2018-04-24T06:47:37.384Z,933.08
2018-04-24T06:48:37.379Z,933.10
2018-04-24T06:49:37.416Z,933.11
2018-04-24T06:50:37.307Z,933.10
2018-04-24T06:51:37.311Z,933.13
2018-04-24T06:52:37.341Z,933.14
2018-04-24T06:53:37.442Z,933.06
2018-04-24T06:54:37.360Z,933.08
2018-04-24T06:55:37.499Z,933.08
2018-04-24T06:56:37.391Z,933.06
2018-04-24T06:57:37.399Z,933.09
2018-04-24T06:58:37.651Z,933.12
2018-04-24T06:59:37.440Z,933.14
2018-04-24T07:00:37.457Z,933.12
2018-04-24T07:01:37.452Z,933.07
2018-04-24T07:02:37.594Z,933.09
2018-04-24T07:03:37.584Z,933.11
2018-04-24T07:04:37.498Z,933.13
2018-04-24T07:05:37.637Z,933.14
2018-04-24T07:06:37.653Z,933.18
2018-04-24T07:07:37.539Z,933.16
2018-04-24T07:08:37.651Z,933.19
2018-04-24T07:09:37.696Z,933.22
2018-04-24T07:10:37.592Z,933.22
2018-04-24T07:11:37.602Z,933.19
2018-04-24T07:12:37.616Z,933.20
2018-04-24T07:13:37.723Z,933.21
2018-04-24T07:14:37.762Z,933.18
2018-04-24T07:15:37.652Z,933.20
2018-04-24T07:16:37.792Z,933.17
2018-04-24T07:17:37.804Z,933.17
2018-04-24T07:18:37.801Z,933.16
2018-04-24T07:19:37.706Z,933.18
2018-04-24T07:20:37.733Z,933.19
2018-04-24T07:21:37.731Z,933.18
2018-04-24T07:22:37.761Z,933.19
2018-04-24T07:23:37.991Z,933.17
2018-04-24T07:24:37.911Z,933.16
2018-04-24T07:25:37.795Z,933.18
2018-04-24T07:26:37.933Z,933.22
2018-04-24T07:27:37.945Z,933.18
2018-04-24T07:28:37.831Z,933.21
2018-04-24T07:29:37.955Z,933.16
2018-04-24T07:30:37.860Z,933.19
2018-04-24T07:31:38.001Z,933.20
2018-04-24T07:32:38.018Z,933.20
2018-04-24T07:33:38.028Z,933.19
2018-04-24T07:34:38.078Z,933.18
2018-04-24T07:35:38.058Z,933.23
2018-04-24T07:36:38.073Z,933.20
2018-04-24T07:37:37.971Z,933.20
2018-04-24T07:38:37.973Z,933.21
2018-04-24T07:39:37.999Z,933.20
2018-04-24T07:40:38.279Z,933.20
2018-04-24T07:41:38.140Z,933.24
2018-04-24T07:42:38.153Z,933.25
2018-04-24T07:43:38.040Z,933.23
2018-04-24T07:44:38.065Z,933.31
2018-04-24T07:45:38.233Z,933.27
2018-04-24T07:46:38.159Z,933.31
2018-04-24T07:47:38.223Z,933.31
2018-04-24T07:48:38.118Z,933.35
2018-04-24T07:49:38.255Z,933.35
2018-04-24T07:50:38.245Z,933.36
2018-04-24T07:51:38.286Z,933.37
2018-04-24T07:52:38.168Z,933.37
2018-04-24T07:53:38.307Z,933.41
2018-04-24T07:54:38.194Z,933.46
2018-04-24T07:55:38.484Z,933.47
2018-04-24T07:56:38.239Z,933.46
2018-04-24T07:57:38.240Z,933.46
2018-04-24T07:58:38.262Z,933.45
2018-04-24T07:59:38.284Z,933.45
2018-04-24T08:00:38.388Z,933.41
2018-04-24T08:01:38.298Z,933.44
2018-04-24T08:02:38.428Z,933.44
2018-04-24T08:03:38.442Z,933.44
2018-04-24T08:04:38.456Z,933.45
2018-04-24T08:05:38.453Z,933.46
2018-04-24T08:06:38.360Z,933.45
2018-04-24T08:07:38.499Z,933.47
2018-04-24T08:08:38.386Z,933.50
2018-04-24T08:09:38.394Z,933.51
2018-04-24T08:10:38.414Z,933.52
2018-04-24T08:11:38.655Z,933.51
2018-04-24T08:12:38.447Z,933.53
2018-04-24T08:13:38.467Z,933.57
2018-04-24T08:14:38.481Z,933.56
2018-04-24T08:15:38.607Z,933.57
2018-04-24T08:16:38.729Z,933.60
2018-04-24T08:17:38.607Z,933.62
2018-04-24T08:18:38.529Z,933.60
2018-04-24T08:19:38.534Z,933.65
2018-04-24T08:20:38.561Z,933.70
2018-04-24T08:21:38.692Z,933.70
2018-04-24T08:22:38.689Z,933.73
2018-04-24T08:23:38.719Z,933.78
2018-04-24T08:24:38.730Z,933.73
2018-04-24T08:25:38.631Z,933.74
2018-04-24T08:26:38.757Z,933.80
2018-04-24T08:27:38.657Z,933.78
2018-04-24T08:28:38.759Z,933.77
2018-04-24T08:29:38.680Z,933.81
2018-04-24T08:30:38.685Z,933.81
2018-04-24T08:31:38.707Z,933.86
2018-04-24T08:32:38.713Z,933.83
2018-04-24T08:33:38.743Z,933.86
2018-04-24T08:34:38.846Z,933.87
2018-04-24T08:35:38.754Z,933.86
2018-04-24T08:36:38.770Z,933.90
2018-04-24T08:37:38.910Z,933.89
2018-04-24T08:38:38.802Z,933.94
2018-04-24T08:39:38.924Z,933.92
2018-04-24T08:40:38.824Z,933.95
2018-04-24T08:41:38.842Z,933.94
2018-04-24T08:42:38.851Z,933.96
2018-04-24T08:43:38.874Z,933.97
2018-04-24T08:44:38.981Z,933.99
2018-04-24T08:45:38.909Z,933.95
2018-04-24T08:46:38.917Z,933.98
2018-04-24T08:47:39.052Z,933.98
2018-04-24T08:48:38.938Z,934.01
2018-04-24T08:49:39.178Z,934.05
2018-04-24T08:50:38.963Z,934.05
2018-04-24T08:51:39.106Z,934.08
2018-04-24T08:52:39.005Z,934.10
2018-04-24T08:53:39.006Z,934.09
2018-04-24T08:54:39.136Z,934.11
2018-04-24T08:55:39.161Z,934.10
2018-04-24T08:56:39.174Z,934.09
2018-04-24T08:57:39.077Z,934.12
2018-04-24T08:58:39.084Z,934.12
2018-04-24T08:59:39.199Z,934.10
2018-04-24T09:00:39.112Z,934.15
2018-04-24T09:01:39.121Z,934.17
2018-04-24T09:02:39.140Z,934.18
2018-04-24T09:03:39.145Z,934.17
2018-04-24T09:04:39.269Z,934.19
2018-04-24T09:05:39.173Z,934.18
2018-04-24T09:06:39.314Z,934.19
2018-04-24T09:07:39.201Z,934.20
2018-04-24T09:08:39.250Z,934.23
2018-04-24T09:09:39.345Z,934.20
2018-04-24T09:10:39.372Z,934.21
2018-04-24T09:11:39.272Z,934.20
2018-04-24T09:12:39.401Z,934.20
2018-04-24T09:13:39.417Z,934.22
2018-04-24T09:14:39.527Z,934.24
2018-04-24T09:15:39.323Z,934.28
2018-04-24T09:16:39.459Z,934.26
2018-04-24T09:17:39.347Z,934.28
2018-04-24T09:18:39.360Z,934.31
2018-04-24T09:19:39.597Z,934.29
2018-04-24T09:20:39.514Z,934.32
2018-04-24T09:21:39.526Z,934.33
2018-04-24T09:22:39.417Z,934.33
2018-04-24T09:23:39.438Z,934.31
2018-04-24T09:24:39.548Z,934.36
2018-04-24T09:25:39.461Z,934.36
2018-04-24T09:26:39.477Z,934.36
2018-04-24T09:27:39.611Z,934.39
2018-04-24T09:28:39.495Z,934.39
2018-04-24T09:29:39.519Z,934.39
2018-04-24T09:30:39.625Z,934.41
2018-04-24T09:31:39.664Z,934.40
2018-04-24T09:32:39.551Z,934.42
2018-04-24T09:33:39.715Z,934.44
2018-04-24T09:34:39.707Z,934.44
2018-04-24T09:35:39.824Z,934.40
2018-04-24T09:36:39.621Z,934.43
2018-04-24T09:37:39.619Z,934.47
2018-04-24T09:38:39.766Z,934.47
2018-04-24T09:39:39.655Z,934.51
2018-04-24T09:40:39.894Z,934.50
2018-04-24T09:41:39.686Z,934.53
2018-04-24T09:42:39.823Z,934.59
2018-04-24T09:43:39.715Z,934.55
2018-04-24T09:44:39.729Z,934.57
2018-04-24T09:45:39.964Z,934.58
2018-04-24T09:46:39.757Z,934.57
2018-04-24T09:47:39.891Z,934.61
2018-04-24T09:48:39.781Z,934.59
2018-04-24T09:49:39.806Z,934.62
2018-04-24T09:50:39.919Z,934.64
2018-04-24T09:51:39.943Z,934.61
2018-04-24T09:52:39.959Z,934.61
2018-04-24T09:53:39.846Z,934.61
2018-04-24T09:54:39.868Z,934.64
2018-04-24T09:55:39.977Z,934.66
2018-04-24T09:56:39.889Z,934.65
2018-04-24T09:57:40.029Z,934.69
2018-04-24T09:58:40.045Z,934.71
2018-04-24T09:59:40.056Z,934.71
2018-04-24T10:00:40.057Z,934.73
2018-04-24T10:01:40.085Z,934.66
2018-04-24T10:02:39.984Z,934.71
2018-04-24T10:03:39.990Z,934.74
2018-04-24T10:04:40.135Z,934.73
2018-04-24T10:05:40.247Z,934.76
2018-04-24T10:06:40.159Z,934.75
2018-04-24T10:07:40.053Z,934.78
2018-04-24T10:08:40.060Z,934.80
2018-04-24T10:09:40.199Z,934.80
2018-04-24T10:10:40.189Z,934.82
2018-04-24T10:11:40.228Z,934.79
2018-04-24T10:12:40.114Z,934.81
2018-04-24T10:13:40.399Z,934.81
2018-04-24T10:14:40.152Z,934.83
2018-04-24T10:15:40.388Z,934.83
2018-04-24T10:16:40.172Z,934.80
2018-04-24T10:17:40.318Z,934.83
2018-04-24T10:18:40.198Z,934.84
2018-04-24T10:19:40.346Z,934.85
2018-04-24T10:20:40.360Z,934.86
2018-04-24T10:21:40.246Z,934.83
2018-04-24T10:22:40.267Z,934.85
2018-04-24T10:23:40.276Z,934.81
2018-04-24T10:24:40.288Z,934.80
2018-04-24T10:25:40.418Z,934.82
2018-04-24T10:26:40.448Z,934.85
2018-04-24T10:27:40.340Z,934.84
2018-04-24T10:28:40.474Z,934.80
2018-04-24T10:29:40.375Z,934.82
2018-04-24T10:30:40.499Z,934.85
2018-04-24T10:31:40.407Z,934.87
2018-04-24T10:32:40.538Z,934.80
2018-04-24T10:33:40.449Z,934.91
2018-04-24T10:34:40.566Z,934.93
2018-04-24T10:35:40.616Z,934.89
2018-04-24T10:36:40.595Z,934.93
2018-04-24T10:37:40.483Z,934.94
2018-04-24T10:38:40.506Z,934.89
2018-04-24T10:39:40.521Z,934.92
2018-04-24T10:40:40.758Z,934.92
2018-04-24T10:41:40.545Z,934.97
2018-04-24T10:42:40.567Z,934.95
2018-04-24T10:43:40.575Z,935.00
2018-04-24T10:44:40.717Z,934.99
2018-04-24T10:45:40.731Z,935.03
2018-04-24T10:46:40.751Z,935.02
2018-04-24T10:47:40.764Z,935.04
2018-04-24T10:48:40.704Z,935.03
2018-04-24T10:49:40.681Z,935.01
2018-04-24T10:50:40.917Z,935.00
2018-04-24T10:51:40.815Z,934.97
2018-04-24T10:52:40.723Z,935.00
2018-04-24T10:53:40.746Z,934.96
2018-04-24T10:54:40.756Z,934.99
2018-04-24T10:55:41.000Z,934.96
2018-04-24T10:56:40.917Z,935.00
2018-04-24T10:57:40.808Z,934.96
2018-04-24T10:58:40.953Z,935.00
2018-04-24T10:59:40.847Z,935.01
2018-04-24T11:00:40.982Z,935.04
2018-04-24T11:01:40.887Z,935.02
2018-04-24T11:02:41.021Z,934.96
2018-04-24T11:03:41.040Z,934.99
2018-04-24T11:04:40.938Z,934.98
2018-04-24T11:05:41.050Z,934.97
2018-04-24T11:06:40.977Z,935.02
2018-04-24T11:07:41.110Z,935.01
2018-04-24T11:08:40.998Z,935.01
2018-04-24T11:09:41.032Z,935.04
2018-04-24T11:10:41.262Z,935.06
2018-04-24T11:11:41.180Z,935.01
2018-04-24T11:12:41.081Z,935.02
2018-04-24T11:13:41.218Z,935.03
2018-04-24T11:14:41.237Z,935.03
2018-04-24T11:15:41.240Z,935.07
2018-04-24T11:16:41.273Z,935.04
2018-04-24T11:17:41.291Z,935.01
2018-04-24T11:18:41.309Z,934.99
2018-04-24T11:19:41.216Z,935.04
2018-04-24T11:20:41.323Z,935.11
2018-04-24T11:21:41.254Z,935.11
2018-04-24T11:22:41.350Z,935.13
2018-04-24T11:23:41.405Z,935.10
2018-04-24T11:24:41.424Z,935.11
2018-04-24T11:25:41.545Z,935.16
2018-04-24T11:26:41.386Z,935.18
2018-04-24T11:27:41.358Z,935.13
2018-04-24T11:28:41.382Z,935.19
2018-04-24T11:29:41.520Z,935.16
2018-04-24T11:30:41.526Z,935.16
2018-04-24T11:31:41.432Z,935.18
2018-04-24T11:32:41.580Z,935.17
2018-04-24T11:33:41.597Z,935.23
2018-04-24T11:34:41.492Z,935.31
2018-04-24T11:35:43.738Z,935.27
2018-04-24T11:36:41.569Z,935.29
2018-04-24T11:37:41.561Z,935.28
2018-04-24T11:38:41.583Z,935.27
2018-04-24T11:39:41.719Z,935.32
2018-04-24T11:40:41.716Z,935.24
2018-04-24T11:41:41.664Z,935.27
2018-04-24T11:42:41.779Z,935.23
2018-04-24T11:43:41.681Z,935.25
2018-04-24T11:44:41.693Z,935.27
2018-04-24T11:45:41.940Z,935.31
2018-04-24T11:46:41.858Z,935.27
2018-04-24T11:47:41.880Z,935.29
2018-04-24T11:48:41.901Z,935.34
2018-04-24T11:49:41.839Z,935.33
2018-04-24T11:50:41.914Z,935.34
2018-04-24T11:51:41.963Z,935.34
2018-04-24T11:52:41.987Z,935.32
2018-04-24T11:53:41.893Z,935.39
2018-04-24T11:54:42.028Z,935.35
2018-04-24T11:55:42.148Z,935.40
2018-04-24T11:56:41.952Z,935.42
2018-04-24T11:57:41.968Z,935.43
2018-04-24T11:58:41.994Z,935.37
2018-04-24T11:59:42.011Z,935.42
2018-04-24T12:00:42.143Z,935.45
2018-04-24T12:01:42.065Z,935.40
2018-04-24T12:02:42.201Z,935.40
2018-04-24T12:03:42.223Z,935.48
2018-04-24T12:04:42.247Z,935.49
2018-04-24T12:05:42.244Z,935.48
2018-04-24T12:06:42.169Z,935.45
2018-04-24T12:07:42.182Z,935.44
2018-04-24T12:08:42.211Z,935.49
2018-04-24T12:09:42.353Z,935.50
2018-04-24T12:10:42.471Z,935.48
2018-04-24T12:11:42.267Z,935.54
2018-04-24T12:12:42.300Z,935.49
2018-04-24T12:13:42.319Z,935.55
2018-04-24T12:14:42.460Z,935.55
2018-04-24T12:15:42.635Z,935.57
2018-04-24T12:16:42.503Z,935.53
2018-04-24T12:17:42.397Z,935.60
2018-04-24T12:18:42.545Z,935.63
2018-04-24T12:19:42.569Z,935.63
2018-04-24T12:20:42.574Z,935.57
2018-04-24T12:21:42.487Z,935.57
2018-04-24T12:22:42.509Z,935.57
2018-04-24T12:23:42.651Z,935.59
2018-04-24T12:24:42.673Z,935.60
2018-04-24T12:25:42.699Z,935.61
2018-04-24T12:26:42.704Z,935.58
2018-04-24T12:27:42.737Z,935.61
2018-04-24T12:28:42.631Z,935.63
2018-04-24T12:29:42.663Z,935.70
2018-04-24T12:30:42.674Z,935.70
2018-04-24T12:31:42.802Z,935.62
2018-04-24T12:32:42.843Z,935.65
2018-04-24T12:33:42.868Z,935.66
2018-04-24T12:34:42.764Z,935.68